sensor_id;sensor_type;location;lat;lon;timestamp;temperature;humidity
19033;DHT22;9649;51.042;13.804;2023-04-24T00:05:01;13.50;1.00
19033;DHT22;9649;51.042;13.804;2023-04-24T00:10:05;13.50;1.00
19033;DHT22;9649;51.042;13.804;2023-04-24T00:15:10;13.60;1.00
19033;DHT22;9649;51.042;13.804;2023-04-24T00:20:13;13.60;1.00
19033;DHT22;9649;51.042;13.804;2023-04-24T00:25:16;13.70;1.00
19033;DHT22;9649;51.042;13.804;2023-04-24T00:30:20;13.80;1.00
19033;DHT22;9649;51.042;13.804;2023-04-24T00:35:23;13.70;1.00
19033;DHT22;9649;51.042;13.804;2023-04-24T00:40:26;13.60;1.00
19033;DHT22;9649;51.042;13.804;2023-04-24T00:45:31;13.50;1.00
19033;DHT22;9649;51.042;13.804;2023-04-24T00:50:35;13.40;10.40
19033;DHT22;9649;51.042;13.804;2023-04-24T00:55:41;13.30;23.90
19033;DHT22;9649;51.042;13.804;2023-04-24T01:00:53;13.20;33.30
19033;DHT22;9649;51.042;13.804;2023-04-24T01:05:57;13.20;59.30
19033;DHT22;9649;51.042;13.804;2023-04-24T01:11:03;13.10;76.30
19033;DHT22;9649;51.042;13.804;2023-04-24T01:16:07;13.10;74.70
19033;DHT22;9649;51.042;13.804;2023-04-24T01:21:13;13.10;99.90
19033;DHT22;9649;51.042;13.804;2023-04-24T01:26:17;13.00;99.90
19033;DHT22;9649;51.042;13.804;2023-04-24T01:31:21;13.10;97.90
19033;DHT22;9649;51.042;13.804;2023-04-24T01:36:24;13.20;92.60
19033;DHT22;9649;51.042;13.804;2023-04-24T01:41:30;13.10;99.90
19033;DHT22;9649;51.042;13.804;2023-04-24T01:46:33;13.20;89.30
19033;DHT22;9649;51.042;13.804;2023-04-24T01:51:37;13.10;99.90
19033;DHT22;9649;51.042;13.804;2023-04-24T01:56:42;13.10;99.90
19033;DHT22;9649;51.042;13.804;2023-04-24T02:01:47;13.00;99.90
19033;DHT22;9649;51.042;13.804;2023-04-24T02:06:50;13.10;99.90
19033;DHT22;9649;51.042;13.804;2023-04-24T02:11:54;13.10;99.90
19033;DHT22;9649;51.042;13.804;2023-04-24T02:16:57;13.00;99.90
19033;DHT22;9649;51.042;13.804;2023-04-24T02:22:00;13.00;99.90
19033;DHT22;9649;51.042;13.804;2023-04-24T02:27:04;12.90;99.90
19033;DHT22;9649;51.042;13.804;2023-04-24T02:32:08;12.90;99.90
19033;DHT22;9649;51.042;13.804;2023-04-24T02:37:13;12.90;99.90
19033;DHT22;9649;51.042;13.804;2023-04-24T02:42:17;12.90;99.90
19033;DHT22;9649;51.042;13.804;2023-04-24T02:47:20;12.70;99.90
19033;DHT22;9649;51.042;13.804;2023-04-24T02:52:23;12.70;99.90
19033;DHT22;9649;51.042;13.804;2023-04-24T02:57:27;12.60;99.90
19033;DHT22;9649;51.042;13.804;2023-04-24T03:02:30;12.60;99.90
19033;DHT22;9649;51.042;13.804;2023-04-24T03:07:33;12.80;99.90
19033;DHT22;9649;51.042;13.804;2023-04-24T03:12:37;12.80;99.90
19033;DHT22;9649;51.042;13.804;2023-04-24T03:17:40;12.60;99.90
19033;DHT22;9649;51.042;13.804;2023-04-24T03:22:42;12.60;99.90
19033;DHT22;9649;51.042;13.804;2023-04-24T03:27:47;12.60;99.90
19033;DHT22;9649;51.042;13.804;2023-04-24T03:32:49;12.60;99.90
19033;DHT22;9649;51.042;13.804;2023-04-24T03:37:52;12.70;99.90
19033;DHT22;9649;51.042;13.804;2023-04-24T03:42:56;12.70;99.90
19033;DHT22;9649;51.042;13.804;2023-04-24T03:47:59;12.60;99.90
19033;DHT22;9649;51.042;13.804;2023-04-24T03:53:02;12.50;99.90
19033;DHT22;9649;51.042;13.804;2023-04-24T03:58:06;12.40;99.90
19033;DHT22;9649;51.042;13.804;2023-04-24T04:03:09;12.20;99.90
19033;DHT22;9649;51.042;13.804;2023-04-24T04:08:12;12.30;99.90
19033;DHT22;9649;51.042;13.804;2023-04-24T04:13:16;12.40;99.90
19033;DHT22;9649;51.042;13.804;2023-04-24T04:18:18;12.40;99.90
19033;DHT22;9649;51.042;13.804;2023-04-24T04:23:21;12.50;99.90
19033;DHT22;9649;51.042;13.804;2023-04-24T04:28:26;12.60;99.90
19033;DHT22;9649;51.042;13.804;2023-04-24T04:33:29;12.80;99.90
19033;DHT22;9649;51.042;13.804;2023-04-24T04:38:32;13.00;99.90
19033;DHT22;9649;51.042;13.804;2023-04-24T04:43:38;13.10;7.00
19033;DHT22;9649;51.042;13.804;2023-04-24T04:48:44;13.30;1.00
19033;DHT22;9649;51.042;13.804;2023-04-24T04:53:47;13.40;1.00
19033;DHT22;9649;51.042;13.804;2023-04-24T04:58:51;13.40;1.00
19033;DHT22;9649;51.042;13.804;2023-04-24T05:03:54;13.50;1.00
19033;DHT22;9649;51.042;13.804;2023-04-24T05:08:59;13.70;1.00
19033;DHT22;9649;51.042;13.804;2023-04-24T05:14:07;13.90;1.00
19033;DHT22;9649;51.042;13.804;2023-04-24T05:19:10;14.20;1.00
19033;DHT22;9649;51.042;13.804;2023-04-24T05:24:13;14.60;1.00
19033;DHT22;9649;51.042;13.804;2023-04-24T05:29:29;14.90;99.90
19033;DHT22;9649;51.042;13.804;2023-04-24T05:34:33;15.10;1.00
19033;DHT22;9649;51.042;13.804;2023-04-24T05:39:36;15.20;1.00
19033;DHT22;9649;51.042;13.804;2023-04-24T05:44:43;15.30;1.00
19033;DHT22;9649;51.042;13.804;2023-04-24T05:49:46;15.40;1.00
19033;DHT22;9649;51.042;13.804;2023-04-24T05:54:49;15.70;7.40
19033;DHT22;9649;51.042;13.804;2023-04-24T05:59:53;15.70;1.00
19033;DHT22;9649;51.042;13.804;2023-04-24T06:04:56;15.90;99.90
19033;DHT22;9649;51.042;13.804;2023-04-24T06:10:00;16.10;1.00
19033;DHT22;9649;51.042;13.804;2023-04-24T06:15:06;16.00;99.90
19033;DHT22;9649;51.042;13.804;2023-04-24T06:20:10;16.10;1.00
19033;DHT22;9649;51.042;13.804;2023-04-24T06:25:19;16.50;99.90
19033;DHT22;9649;51.042;13.804;2023-04-24T06:30:29;16.80;1.00
19033;DHT22;9649;51.042;13.804;2023-04-24T06:35:41;17.30;99.90
19033;DHT22;9649;51.042;13.804;2023-04-24T06:40:46;17.70;1.00
19033;DHT22;9649;51.042;13.804;2023-04-24T06:45:57;17.90;99.90
19033;DHT22;9649;51.042;13.804;2023-04-24T06:51:08;18.10;1.00
19033;DHT22;9649;51.042;13.804;2023-04-24T06:56:10;18.30;1.00
19033;DHT22;9649;51.042;13.804;2023-04-24T07:01:14;18.40;1.00
19033;DHT22;9649;51.042;13.804;2023-04-24T07:06:17;18.60;1.00
19033;DHT22;9649;51.042;13.804;2023-04-24T07:11:23;19.10;1.00
19033;DHT22;9649;51.042;13.804;2023-04-24T07:16:28;19.60;99.90
19033;DHT22;9649;51.042;13.804;2023-04-24T07:21:31;19.60;99.90
19033;DHT22;9649;51.042;13.804;2023-04-24T07:26:34;19.80;99.90
19033;DHT22;9649;51.042;13.804;2023-04-24T07:31:38;20.30;15.70
19033;DHT22;9649;51.042;13.804;2023-04-24T07:36:42;19.80;1.00
19033;DHT22;9649;51.042;13.804;2023-04-24T07:41:45;19.10;1.00
19033;DHT22;9649;51.042;13.804;2023-04-24T07:46:49;19.00;69.10
19033;DHT22;9649;51.042;13.804;2023-04-24T07:51:52;19.00;93.90
19033;DHT22;9649;51.042;13.804;2023-04-24T07:56:54;19.10;99.90
19033;DHT22;9649;51.042;13.804;2023-04-24T08:01:58;19.10;99.90
19033;DHT22;9649;51.042;13.804;2023-04-24T08:07:03;20.00;99.90
19033;DHT22;9649;51.042;13.804;2023-04-24T08:12:12;19.70;34.60
19033;DHT22;9649;51.042;13.804;2023-04-24T08:17:18;20.20;1.00
19033;DHT22;9649;51.042;13.804;2023-04-24T08:22:22;19.70;1.00
19033;DHT22;9649;51.042;13.804;2023-04-24T08:27:27;19.80;1.00
19033;DHT22;9649;51.042;13.804;2023-04-24T08:32:33;20.10;1.00
19033;DHT22;9649;51.042;13.804;2023-04-24T08:37:41;20.40;1.00
19033;DHT22;9649;51.042;13.804;2023-04-24T08:42:44;20.00;1.00
19033;DHT22;9649;51.042;13.804;2023-04-24T08:47:49;20.10;1.00
19033;DHT22;9649;51.042;13.804;2023-04-24T08:52:54;20.00;1.00
19033;DHT22;9649;51.042;13.804;2023-04-24T08:57:59;19.50;1.00
19033;DHT22;9649;51.042;13.804;2023-04-24T09:03:05;19.30;1.00
19033;DHT22;9649;51.042;13.804;2023-04-24T09:08:09;19.90;1.00
19033;DHT22;9649;51.042;13.804;2023-04-24T09:13:13;21.60;1.00
19033;DHT22;9649;51.042;13.804;2023-04-24T09:18:19;21.70;1.00
19033;DHT22;9649;51.042;13.804;2023-04-24T09:23:23;22.10;1.00
19033;DHT22;9649;51.042;13.804;2023-04-24T09:28:30;21.70;1.00
19033;DHT22;9649;51.042;13.804;2023-04-24T09:33:36;22.00;1.00
19033;DHT22;9649;51.042;13.804;2023-04-24T09:38:39;21.40;1.00
19033;DHT22;9649;51.042;13.804;2023-04-24T09:43:42;21.90;1.00
19033;DHT22;9649;51.042;13.804;2023-04-24T09:48:47;22.40;1.00
19033;DHT22;9649;51.042;13.804;2023-04-24T09:53:52;21.70;1.00
19033;DHT22;9649;51.042;13.804;2023-04-24T09:59:04;20.50;1.00
19033;DHT22;9649;51.042;13.804;2023-04-24T10:04:17;20.00;1.00
19033;DHT22;9649;51.042;13.804;2023-04-24T10:09:24;20.40;1.00
19033;DHT22;9649;51.042;13.804;2023-04-24T10:14:29;20.30;1.00
19033;DHT22;9649;51.042;13.804;2023-04-24T10:19:35;20.00;1.00
19033;DHT22;9649;51.042;13.804;2023-04-24T10:24:40;20.20;1.00
19033;DHT22;9649;51.042;13.804;2023-04-24T10:29:47;20.40;1.00
19033;DHT22;9649;51.042;13.804;2023-04-24T10:34:54;20.70;1.00
19033;DHT22;9649;51.042;13.804;2023-04-24T10:39:59;21.60;1.00
19033;DHT22;9649;51.042;13.804;2023-04-24T10:45:05;22.20;1.00
19033;DHT22;9649;51.042;13.804;2023-04-24T10:50:10;26.00;1.00
19033;DHT22;9649;51.042;13.804;2023-04-24T10:55:16;28.70;1.00
19033;DHT22;9649;51.042;13.804;2023-04-24T11:00:22;25.80;1.00
19033;DHT22;9649;51.042;13.804;2023-04-24T11:05:53;23.40;1.00
19033;DHT22;9649;51.042;13.804;2023-04-24T11:11:01;22.10;1.00
19033;DHT22;9649;51.042;13.804;2023-04-24T11:16:15;20.50;1.00
19033;DHT22;9649;51.042;13.804;2023-04-24T11:21:25;19.30;1.00
19033;DHT22;9649;51.042;13.804;2023-04-24T11:26:38;18.70;1.00
19033;DHT22;9649;51.042;13.804;2023-04-24T11:31:44;18.90;1.00
19033;DHT22;9649;51.042;13.804;2023-04-24T11:36:53;18.90;1.00
19033;DHT22;9649;51.042;13.804;2023-04-24T11:42:02;19.30;1.00
19033;DHT22;9649;51.042;13.804;2023-04-24T11:47:09;19.30;1.00
19033;DHT22;9649;51.042;13.804;2023-04-24T11:52:17;19.70;1.00
19033;DHT22;9649;51.042;13.804;2023-04-24T11:57:23;22.20;1.00
19033;DHT22;9649;51.042;13.804;2023-04-24T12:02:30;22.30;1.00
19033;DHT22;9649;51.042;13.804;2023-04-24T12:07:40;22.50;1.00
19033;DHT22;9649;51.042;13.804;2023-04-24T12:12:45;25.00;1.00
19033;DHT22;9649;51.042;13.804;2023-04-24T12:17:53;26.40;1.00
19033;DHT22;9649;51.042;13.804;2023-04-24T12:23:00;25.40;1.00
19033;DHT22;9649;51.042;13.804;2023-04-24T12:28:12;21.50;1.00
19033;DHT22;9649;51.042;13.804;2023-04-24T12:33:17;20.00;1.00
19033;DHT22;9649;51.042;13.804;2023-04-24T12:38:24;19.20;1.00
19033;DHT22;9649;51.042;13.804;2023-04-24T12:43:27;19.50;1.00
19033;DHT22;9649;51.042;13.804;2023-04-24T12:48:30;21.90;1.00
19033;DHT22;9649;51.042;13.804;2023-04-24T12:53:35;24.10;1.00
19033;DHT22;9649;51.042;13.804;2023-04-24T12:58:37;24.90;1.00
19033;DHT22;9649;51.042;13.804;2023-04-24T13:03:40;23.70;99.90
19033;DHT22;9649;51.042;13.804;2023-04-24T13:08:45;22.80;99.90
19033;DHT22;9649;51.042;13.804;2023-04-24T13:13:49;21.40;99.90
19033;DHT22;9649;51.042;13.804;2023-04-24T13:18:55;20.70;99.90
19033;DHT22;9649;51.042;13.804;2023-04-24T13:23:59;20.70;99.90
19033;DHT22;9649;51.042;13.804;2023-04-24T13:29:02;23.20;99.90
19033;DHT22;9649;51.042;13.804;2023-04-24T13:34:05;25.40;99.90
19033;DHT22;9649;51.042;13.804;2023-04-24T13:39:09;24.20;99.90
19033;DHT22;9649;51.042;13.804;2023-04-24T13:44:12;25.90;99.90
19033;DHT22;9649;51.042;13.804;2023-04-24T13:49:16;26.50;99.90
19033;DHT22;9649;51.042;13.804;2023-04-24T13:54:20;24.90;99.90
19033;DHT22;9649;51.042;13.804;2023-04-24T13:59:24;23.60;99.90
19033;DHT22;9649;51.042;13.804;2023-04-24T14:04:27;22.10;99.90
19033;DHT22;9649;51.042;13.804;2023-04-24T14:09:31;21.40;99.90
19033;DHT22;9649;51.042;13.804;2023-04-24T14:14:34;22.90;99.90
19033;DHT22;9649;51.042;13.804;2023-04-24T14:19:37;23.10;99.90
19033;DHT22;9649;51.042;13.804;2023-04-24T14:24:41;23.70;99.90
19033;DHT22;9649;51.042;13.804;2023-04-24T14:29:43;26.30;99.90
19033;DHT22;9649;51.042;13.804;2023-04-24T14:34:48;24.60;99.90
19033;DHT22;9649;51.042;13.804;2023-04-24T14:39:52;23.00;99.90
19033;DHT22;9649;51.042;13.804;2023-04-24T14:45:15;23.40;99.90
19033;DHT22;9649;51.042;13.804;2023-04-24T14:50:18;23.30;99.90
19033;DHT22;9649;51.042;13.804;2023-04-24T14:55:26;24.10;99.90
19033;DHT22;9649;51.042;13.804;2023-04-24T15:00:29;24.00;99.90
19033;DHT22;9649;51.042;13.804;2023-04-24T15:05:32;22.10;99.90
19033;DHT22;9649;51.042;13.804;2023-04-24T15:10:36;23.70;99.90
19033;DHT22;9649;51.042;13.804;2023-04-24T15:15:39;24.10;99.90
19033;DHT22;9649;51.042;13.804;2023-04-24T15:20:42;22.70;99.90
19033;DHT22;9649;51.042;13.804;2023-04-24T15:25:46;22.20;99.90
19033;DHT22;9649;51.042;13.804;2023-04-24T15:30:49;20.70;99.90
19033;DHT22;9649;51.042;13.804;2023-04-24T15:35:52;19.80;99.90
19033;DHT22;9649;51.042;13.804;2023-04-24T15:40:56;18.90;99.90
19033;DHT22;9649;51.042;13.804;2023-04-24T15:45:59;18.50;99.90
19033;DHT22;9649;51.042;13.804;2023-04-24T15:51:02;18.00;99.90
19033;DHT22;9649;51.042;13.804;2023-04-24T15:56:06;18.00;99.90
19033;DHT22;9649;51.042;13.804;2023-04-24T16:01:08;18.10;99.90
19033;DHT22;9649;51.042;13.804;2023-04-24T16:06:13;17.90;99.90
19033;DHT22;9649;51.042;13.804;2023-04-24T16:11:17;17.50;99.90
19033;DHT22;9649;51.042;13.804;2023-04-24T16:16:20;17.20;99.90
19033;DHT22;9649;51.042;13.804;2023-04-24T16:21:27;17.10;99.90
19033;DHT22;9649;51.042;13.804;2023-04-24T16:26:31;17.00;99.90
19033;DHT22;9649;51.042;13.804;2023-04-24T16:31:34;17.00;99.90
19033;DHT22;9649;51.042;13.804;2023-04-24T16:36:36;17.10;99.90
19033;DHT22;9649;51.042;13.804;2023-04-24T16:41:41;17.10;1.00
19033;DHT22;9649;51.042;13.804;2023-04-24T16:46:44;16.80;1.00
19033;DHT22;9649;51.042;13.804;2023-04-24T16:51:47;16.50;1.00
19033;DHT22;9649;51.042;13.804;2023-04-24T16:56:52;16.40;1.00
19033;DHT22;9649;51.042;13.804;2023-04-24T17:01:55;16.20;1.00
19033;DHT22;9649;51.042;13.804;2023-04-24T17:06:58;16.10;1.00
19033;DHT22;9649;51.042;13.804;2023-04-24T17:12:02;16.10;1.00
19033;DHT22;9649;51.042;13.804;2023-04-24T17:17:04;16.20;1.00
19033;DHT22;9649;51.042;13.804;2023-04-24T17:22:08;16.50;1.00
19033;DHT22;9649;51.042;13.804;2023-04-24T17:27:12;17.00;1.00
19033;DHT22;9649;51.042;13.804;2023-04-24T17:32:16;17.60;1.00
19033;DHT22;9649;51.042;13.804;2023-04-24T17:37:19;16.60;1.00
19033;DHT22;9649;51.042;13.804;2023-04-24T17:42:25;15.80;1.00
19033;DHT22;9649;51.042;13.804;2023-04-24T17:47:28;15.60;1.00
19033;DHT22;9649;51.042;13.804;2023-04-24T17:52:31;15.30;1.00
19033;DHT22;9649;51.042;13.804;2023-04-24T17:57:36;15.40;1.00
19033;DHT22;9649;51.042;13.804;2023-04-24T18:02:38;15.10;1.00
19033;DHT22;9649;51.042;13.804;2023-04-24T18:07:41;14.90;99.90
19033;DHT22;9649;51.042;13.804;2023-04-24T18:12:45;14.70;99.90
19033;DHT22;9649;51.042;13.804;2023-04-24T18:17:48;14.60;99.90
19033;DHT22;9649;51.042;13.804;2023-04-24T18:22:51;14.40;99.90
19033;DHT22;9649;51.042;13.804;2023-04-24T18:27:55;14.40;99.90
19033;DHT22;9649;51.042;13.804;2023-04-24T18:32:58;14.00;99.90
19033;DHT22;9649;51.042;13.804;2023-04-24T18:38:01;13.70;99.90
19033;DHT22;9649;51.042;13.804;2023-04-24T18:43:05;13.50;99.90
19033;DHT22;9649;51.042;13.804;2023-04-24T18:48:08;13.10;1.00
19033;DHT22;9649;51.042;13.804;2023-04-24T18:53:10;13.10;1.00
19033;DHT22;9649;51.042;13.804;2023-04-24T18:58:17;13.00;1.00
19033;DHT22;9649;51.042;13.804;2023-04-24T19:03:19;13.00;1.00
19033;DHT22;9649;51.042;13.804;2023-04-24T19:08:22;12.90;1.00
19033;DHT22;9649;51.042;13.804;2023-04-24T19:13:26;13.00;1.00
19033;DHT22;9649;51.042;13.804;2023-04-24T19:18:29;12.90;1.00
19033;DHT22;9649;51.042;13.804;2023-04-24T19:23:32;12.90;1.00
19033;DHT22;9649;51.042;13.804;2023-04-24T19:28:38;12.80;1.00
19033;DHT22;9649;51.042;13.804;2023-04-24T19:33:41;12.90;1.00
19033;DHT22;9649;51.042;13.804;2023-04-24T19:38:44;12.70;1.00
19033;DHT22;9649;51.042;13.804;2023-04-24T19:43:48;12.80;1.00
19033;DHT22;9649;51.042;13.804;2023-04-24T19:48:51;12.60;1.00
19033;DHT22;9649;51.042;13.804;2023-04-24T19:53:53;12.60;1.00
19033;DHT22;9649;51.042;13.804;2023-04-24T19:58:57;12.40;99.90
19033;DHT22;9649;51.042;13.804;2023-04-24T20:04:00;12.20;99.90
19033;DHT22;9649;51.042;13.804;2023-04-24T20:09:04;12.10;99.90
19033;DHT22;9649;51.042;13.804;2023-04-24T20:14:08;11.80;1.00
19033;DHT22;9649;51.042;13.804;2023-04-24T20:19:11;11.90;1.00
19033;DHT22;9649;51.042;13.804;2023-04-24T20:24:13;11.90;1.00
19033;DHT22;9649;51.042;13.804;2023-04-24T20:29:18;12.00;1.00
19033;DHT22;9649;51.042;13.804;2023-04-24T20:34:21;12.00;1.00
19033;DHT22;9649;51.042;13.804;2023-04-24T20:39:24;12.00;1.00
19033;DHT22;9649;51.042;13.804;2023-04-24T20:44:28;12.10;1.00
19033;DHT22;9649;51.042;13.804;2023-04-24T20:49:31;11.90;1.00
19033;DHT22;9649;51.042;13.804;2023-04-24T20:54:33;11.90;1.00
19033;DHT22;9649;51.042;13.804;2023-04-24T20:59:37;11.60;1.00
19033;DHT22;9649;51.042;13.804;2023-04-24T21:04:40;11.40;99.90
19033;DHT22;9649;51.042;13.804;2023-04-24T21:09:43;11.40;99.90
19033;DHT22;9649;51.042;13.804;2023-04-24T21:14:47;11.30;99.90
19033;DHT22;9649;51.042;13.804;2023-04-24T21:19:52;11.30;1.00
19033;DHT22;9649;51.042;13.804;2023-04-24T21:24:56;11.30;1.00
19033;DHT22;9649;51.042;13.804;2023-04-24T21:30:00;11.30;1.00
19033;DHT22;9649;51.042;13.804;2023-04-24T21:35:04;11.50;99.90
19033;DHT22;9649;51.042;13.804;2023-04-24T21:40:08;11.60;99.90
19033;DHT22;9649;51.042;13.804;2023-04-24T21:45:13;11.50;1.00
19033;DHT22;9649;51.042;13.804;2023-04-24T21:50:16;11.60;1.00
19033;DHT22;9649;51.042;13.804;2023-04-24T21:55:18;11.40;99.90
19033;DHT22;9649;51.042;13.804;2023-04-24T22:00:23;11.30;1.00
19033;DHT22;9649;51.042;13.804;2023-04-24T22:05:26;11.20;99.90
19033;DHT22;9649;51.042;13.804;2023-04-24T22:10:31;11.20;94.60
19033;DHT22;9649;51.042;13.804;2023-04-24T22:15:35;11.20;1.00
19033;DHT22;9649;51.042;13.804;2023-04-24T22:20:37;11.10;1.00
19033;DHT22;9649;51.042;13.804;2023-04-24T22:25:40;10.90;99.90
19033;DHT22;9649;51.042;13.804;2023-04-24T22:30:44;10.70;99.90
19033;DHT22;9649;51.042;13.804;2023-04-24T22:35:47;10.40;99.90
19033;DHT22;9649;51.042;13.804;2023-04-24T22:40:50;10.30;99.90
19033;DHT22;9649;51.042;13.804;2023-04-24T22:45:53;10.10;99.90
19033;DHT22;9649;51.042;13.804;2023-04-24T22:50:56;9.90;1.00
19033;DHT22;9649;51.042;13.804;2023-04-24T22:55:59;9.90;24.20
19033;DHT22;9649;51.042;13.804;2023-04-24T23:01:03;9.90;1.00
19033;DHT22;9649;51.042;13.804;2023-04-24T23:06:06;10.10;99.90
19033;DHT22;9649;51.042;13.804;2023-04-24T23:11:09;10.00;99.90
19033;DHT22;9649;51.042;13.804;2023-04-24T23:16:13;9.80;1.00
19033;DHT22;9649;51.042;13.804;2023-04-24T23:21:16;9.80;1.00
19033;DHT22;9649;51.042;13.804;2023-04-24T23:26:19;9.60;1.00
19033;DHT22;9649;51.042;13.804;2023-04-24T23:31:23;9.50;1.00
19033;DHT22;9649;51.042;13.804;2023-04-24T23:36:26;9.50;1.00
19033;DHT22;9649;51.042;13.804;2023-04-24T23:41:28;9.50;1.00
19033;DHT22;9649;51.042;13.804;2023-04-24T23:46:33;9.70;1.00
19033;DHT22;9649;51.042;13.804;2023-04-24T23:51:36;10.00;99.90
19033;DHT22;9649;51.042;13.804;2023-04-24T23:56:38;10.20;1.00
